Time;durP1;ratioP1;P1;durP2;ratioP2;P2;SDS_P1;SDS_P2;PMS_P1;PMS_P2;Temp;Humidity;BMP_temperature;BMP_pressure;BME280_temperature;BME280_humidity;BME280_pressure;Samples;Min_cycle;Max_cycle;Signal;HPM_P1;HPM_P2
2023/07/05 00:01:28;;;;;;;13.05;6.65;;;16.40;99.90;;;;;;5023566;28;20507;-60
2023/07/05 00:03:54;;;;;;;14.25;6.45;;;16.40;99.90;;;;;;5030701;28;20034;-60
2023/07/05 00:06:19;;;;;;;14.23;6.90;;;16.40;99.90;;;;;;5028181;28;20044;-60
2023/07/05 00:08:45;;;;;;;10.73;6.15;;;16.40;99.90;;;;;;5042235;28;20042;-60
2023/07/05 00:11:11;;;;;;;13.05;6.75;;;16.30;99.90;;;;;;5019451;28;20100;-60
2023/07/05 00:13:38;;;;;;;13.75;6.78;;;16.40;99.90;;;;;;5029003;28;20037;-60
2023/07/05 00:16:04;;;;;;;14.55;6.63;;;16.30;99.90;;;;;;5030940;28;20384;-60
2023/07/05 00:18:30;;;;;;;12.80;7.18;;;16.30;99.90;;;;;;5030197;28;20034;-60
2023/07/05 00:21:01;;;;;;;12.27;7.10;;;16.30;99.90;;;;;;5023479;28;20052;-60
2023/07/05 00:23:28;;;;;;;10.68;6.50;;;16.30;99.90;;;;;;5026203;28;20483;-60
2023/07/05 00:25:54;;;;;;;12.35;6.50;;;16.30;99.90;;;;;;5032557;28;20403;-60
2023/07/05 00:28:19;;;;;;;12.15;6.65;;;16.30;99.90;;;;;;5039766;28;20030;-60
2023/07/05 00:30:46;;;;;;;12.80;7.50;;;16.30;99.90;;;;;;5028103;28;20041;-60
2023/07/05 00:33:12;;;;;;;12.50;7.03;;;16.30;99.90;;;;;;5034125;28;20113;-60
2023/07/05 00:35:48;;;;;;;12.65;6.88;;;16.30;99.90;;;;;;5033767;28;20164;-60
2023/07/05 00:38:14;;;;;;;12.38;7.43;;;16.30;99.90;;;;;;5030967;28;20072;-60
2023/07/05 00:40:40;;;;;;;11.52;7.00;;;16.30;99.90;;;;;;5025027;28;20040;-60
2023/07/05 00:43:06;;;;;;;12.45;7.32;;;16.30;99.90;;;;;;5032913;28;20041;-60
2023/07/05 00:45:56;;;;;;;14.38;7.13;;;16.30;99.90;;;;;;5045909;28;20503;-60
2023/07/05 00:48:45;;;;;;;10.48;6.72;;;16.30;99.90;;;;;;5034887;28;20033;-60
2023/07/05 00:51:21;;;;;;;12.52;7.18;;;16.30;99.90;;;;;;5025457;28;20034;-60
2023/07/05 00:53:47;;;;;;;12.32;7.03;;;16.30;99.90;;;;;;5033918;28;20043;-60
2023/07/05 00:56:21;;;;;;;10.52;6.85;;;16.30;99.90;;;;;;5030490;28;20475;-60
2023/07/05 00:58:47;;;;;;;13.55;6.90;;;16.20;99.90;;;;;;5035129;28;20392;-61
2023/07/05 01:01:13;;;;;;;14.50;7.18;;;16.20;99.90;;;;;;5030044;28;20053;-61
2023/07/05 01:03:40;;;;;;;11.55;6.90;;;16.30;99.90;;;;;;5033622;28;20108;-60
2023/07/05 01:06:07;;;;;;;12.40;7.57;;;16.20;99.90;;;;;;5050139;28;20033;-61
2023/07/05 01:08:32;;;;;;;14.55;7.18;;;16.30;99.90;;;;;;5038733;28;20463;-60
2023/07/05 01:11:14;;;;;;;13.65;7.18;;;16.30;99.90;;;;;;5033121;28;20112;-60
2023/07/05 01:13:46;;;;;;;13.38;7.53;;;16.30;99.90;;;;;;5032035;28;20048;-60
2023/07/05 01:16:36;;;;;;;10.63;6.85;;;16.20;99.90;;;;;;5032648;28;20399;-60
2023/07/05 01:19:31;;;;;;;14.45;7.85;;;16.20;99.90;;;;;;5035260;28;20124;-61
2023/07/05 01:22:08;;;;;;;14.57;8.40;;;16.10;99.90;;;;;;5030370;28;20039;-61
2023/07/05 01:25:00;;;;;;;13.98;7.65;;;16.10;99.90;;;;;;5039346;28;20040;-61
2023/07/05 01:27:55;;;;;;;18.38;7.90;;;16.10;99.90;;;;;;5024093;28;20033;-61
2023/07/05 01:30:56;;;;;;;15.77;8.13;;;16.00;99.90;;;;;;5028482;28;20505;-61
2023/07/05 01:33:43;;;;;;;15.50;7.88;;;16.00;99.90;;;;;;5030505;28;20513;-61
2023/07/05 01:36:11;;;;;;;15.25;8.18;;;16.00;99.90;;;;;;5023687;28;20529;-61
2023/07/05 01:38:36;;;;;;;17.77;8.60;;;15.90;99.90;;;;;;5035482;28;20503;-62
2023/07/05 01:41:06;;;;;;;16.40;9.25;;;15.80;99.90;;;;;;5031183;28;20125;-61
2023/07/05 01:43:34;;;;;;;17.55;8.77;;;15.80;99.90;;;;;;5027475;28;20052;-62
2023/07/05 01:46:21;;;;;;;15.65;8.27;;;15.80;99.90;;;;;;5036587;28;20029;-61
2023/07/05 01:49:22;;;;;;;13.90;8.43;;;15.70;99.90;;;;;;5026185;28;20108;-61
2023/07/05 01:52:00;;;;;;;17.50;8.30;;;15.70;99.90;;;;;;5005078;28;20037;-61
2023/07/05 01:54:42;;;;;;;16.33;9.38;;;15.60;99.90;;;;;;5036604;28;20040;-61
2023/07/05 01:57:17;;;;;;;14.38;8.32;;;15.60;99.90;;;;;;5050105;28;20490;-60
2023/07/05 02:00:00;;;;;;;15.95;8.75;;;15.60;99.90;;;;;;5024979;28;20107;-60
2023/07/05 02:02:30;;;;;;;16.08;9.00;;;15.50;99.90;;;;;;5025696;28;20041;-60
2023/07/05 02:04:57;;;;;;;14.80;8.90;;;15.50;99.90;;;;;;5026801;28;20486;-60
2023/07/05 02:07:27;;;;;;;18.60;9.10;;;15.50;99.90;;;;;;5032028;28;20394;-60
2023/07/05 02:09:54;;;;;;;16.47;9.30;;;15.50;99.90;;;;;;5041383;28;20103;-61
2023/07/05 02:12:19;;;;;;;19.67;9.75;;;15.50;99.90;;;;;;5033378;28;20038;-61
2023/07/05 02:14:45;;;;;;;17.23;9.98;;;15.40;99.90;;;;;;5035750;28;20068;-61
2023/07/05 02:17:11;;;;;;;16.77;9.80;;;15.40;99.90;;;;;;5029893;28;20033;-61
2023/07/05 02:19:37;;;;;;;15.93;10.10;;;15.40;99.90;;;;;;5035152;28;20033;-61
2023/07/05 02:22:03;;;;;;;17.42;9.88;;;15.40;99.90;;;;;;5030689;28;20037;-61
2023/07/05 02:24:29;;;;;;;17.17;10.70;;;15.40;99.90;;;;;;5035178;28;20041;-60
2023/07/05 02:26:55;;;;;;;17.27;11.07;;;15.40;99.90;;;;;;5032080;28;20087;-60
2023/07/05 02:29:22;;;;;;;19.17;10.50;;;15.40;99.90;;;;;;5026598;28;20037;-60
2023/07/05 02:31:48;;;;;;;17.25;10.50;;;15.40;99.90;;;;;;5030071;28;20046;-60
2023/07/05 02:34:14;;;;;;;16.13;10.30;;;15.40;99.90;;;;;;5022396;28;20041;-60
2023/07/05 02:36:40;;;;;;;16.13;10.35;;;15.40;99.90;;;;;;5027679;28;20041;-61
2023/07/05 02:39:05;;;;;;;20.30;10.60;;;15.40;99.90;;;;;;5028540;28;20139;-61
2023/07/05 02:41:31;;;;;;;13.93;9.77;;;15.40;99.90;;;;;;5030389;28;20037;-61
2023/07/05 02:43:57;;;;;;;21.33;10.50;;;15.40;99.90;;;;;;5029442;28;20056;-60
2023/07/05 02:46:25;;;;;;;18.75;10.90;;;15.40;99.90;;;;;;5029264;28;20041;-61
2023/07/05 02:48:52;;;;;;;17.58;10.50;;;15.40;99.90;;;;;;5033541;28;20030;-61
2023/07/05 02:51:17;;;;;;;17.38;10.65;;;15.40;99.90;;;;;;5024313;28;20109;-61
2023/07/05 02:53:43;;;;;;;19.77;10.60;;;15.40;99.90;;;;;;5022332;28;20456;-61
2023/07/05 02:56:09;;;;;;;16.90;10.60;;;15.40;99.90;;;;;;5039522;28;20049;-61
2023/07/05 02:58:34;;;;;;;18.60;10.85;;;15.40;99.90;;;;;;5026810;28;20402;-60
2023/07/05 03:01:00;;;;;;;18.00;11.02;;;15.30;99.90;;;;;;5030058;28;20076;-61
2023/07/05 03:03:26;;;;;;;17.42;11.25;;;15.40;99.90;;;;;;5027797;28;20037;-60
2023/07/05 03:05:56;;;;;;;18.35;9.88;;;15.40;99.90;;;;;;5030418;28;20034;-60
2023/07/05 03:08:22;;;;;;;18.38;10.55;;;15.40;99.90;;;;;;5030778;28;20037;-60
2023/07/05 03:10:47;;;;;;;17.00;10.07;;;15.40;99.90;;;;;;5029620;28;20029;-60
2023/07/05 03:13:13;;;;;;;16.75;10.35;;;15.40;99.90;;;;;;5027813;28;20048;-60
2023/07/05 03:15:38;;;;;;;20.45;11.05;;;15.40;99.90;;;;;;5031826;28;20045;-60
2023/07/05 03:18:04;;;;;;;23.25;11.90;;;15.40;99.90;;;;;;5032880;28;20127;-60
2023/07/05 03:20:30;;;;;;;20.23;10.75;;;15.40;99.90;;;;;;5033433;28;20041;-60
2023/07/05 03:22:55;;;;;;;17.63;10.70;;;15.40;99.90;;;;;;5022597;28;20481;-60
2023/07/05 03:25:21;;;;;;;17.30;10.45;;;15.40;99.90;;;;;;5023870;28;20083;-60
2023/07/05 03:27:46;;;;;;;17.83;10.15;;;15.40;99.90;;;;;;5047665;28;20092;-60
2023/07/05 03:30:12;;;;;;;21.27;10.52;;;15.50;99.90;;;;;;5032353;28;20372;-60
2023/07/05 03:32:40;;;;;;;23.30;10.02;;;15.40;99.90;;;;;;5024253;28;20034;-61
2023/07/05 03:35:05;;;;;;;15.52;10.30;;;15.50;99.90;;;;;;5032107;28;20641;-60
2023/07/05 03:37:31;;;;;;;14.25;10.35;;;15.50;99.90;;;;;;5037485;28;20044;-60
2023/07/05 03:39:56;;;;;;;14.57;9.77;;;15.60;99.90;;;;;;5030260;28;20029;-61
2023/07/05 03:42:22;;;;;;;14.60;9.55;;;15.60;99.90;;;;;;5037185;28;20073;-60
2023/07/05 03:44:48;;;;;;;16.73;10.45;;;15.60;99.90;;;;;;5024714;28;20033;-61
2023/07/05 03:47:13;;;;;;;13.38;9.98;;;15.60;99.90;;;;;;5035333;28;20591;-60
2023/07/05 03:49:39;;;;;;;17.13;10.32;;;15.60;99.90;;;;;;5046552;28;20037;-60
2023/07/05 03:52:05;;;;;;;15.52;10.23;;;15.60;99.90;;;;;;5024164;28;20045;-60
2023/07/05 03:54:30;;;;;;;17.73;11.30;;;15.60;99.90;;;;;;5028874;28;20114;-59
2023/07/05 03:56:56;;;;;;;15.98;10.68;;;15.60;99.90;;;;;;5038072;28;20550;-59
2023/07/05 03:59:22;;;;;;;17.95;10.57;;;15.70;99.90;;;;;;5045158;28;20052;-59
2023/07/05 04:01:47;;;;;;;15.00;10.18;;;15.70;99.90;;;;;;5026221;28;20056;-59
2023/07/05 04:04:13;;;;;;;13.07;9.15;;;15.70;99.90;;;;;;5029202;28;20480;-60
2023/07/05 04:06:38;;;;;;;16.05;9.88;;;15.80;99.90;;;;;;5040600;28;20178;-60
2023/07/05 04:09:04;;;;;;;15.00;9.15;;;15.80;99.90;;;;;;5033510;28;20045;-60
2023/07/05 04:11:29;;;;;;;12.40;9.05;;;15.80;99.90;;;;;;5029613;28;20065;-60
2023/07/05 04:13:55;;;;;;;12.10;9.00;;;15.90;99.90;;;;;;5033805;28;20041;-60
2023/07/05 04:16:24;;;;;;;12.85;8.63;;;15.90;99.90;;;;;;5039387;28;20061;-61
2023/07/05 04:18:51;;;;;;;12.63;7.72;;;16.00;99.90;;;;;;5037723;28;20053;-60
2023/07/05 04:21:17;;;;;;;8.75;5.85;;;16.00;99.90;;;;;;5029104;28;20025;-60
2023/07/05 04:23:43;;;;;;;12.25;6.35;;;16.10;99.90;;;;;;5027214;28;20091;-60
2023/07/05 04:26:15;;;;;;;9.45;6.60;;;16.20;99.90;;;;;;5030958;28;20117;-60
2023/07/05 04:28:42;;;;;;;8.73;5.28;;;16.10;99.90;;;;;;5032678;28;20088;-60
2023/07/05 04:31:10;;;;;;;8.88;5.28;;;16.10;99.90;;;;;;5041742;28;20129;-60
2023/07/05 04:33:35;;;;;;;7.78;4.95;;;16.10;99.90;;;;;;5026108;28;20419;-60
2023/07/05 04:36:02;;;;;;;6.30;4.50;;;16.10;99.90;;;;;;5024592;28;20036;-60
2023/07/05 04:38:28;;;;;;;6.68;4.40;;;16.10;99.90;;;;;;5033249;28;20079;-61
2023/07/05 04:40:56;;;;;;;8.35;4.47;;;16.10;99.90;;;;;;5036654;28;20034;-60
2023/07/05 04:43:22;;;;;;;6.57;4.20;;;16.10;99.90;;;;;;5026616;28;20048;-60
2023/07/05 04:45:49;;;;;;;6.88;4.05;;;16.00;99.90;;;;;;5023234;28;20029;-60
2023/07/05 04:48:16;;;;;;;5.95;4.00;;;16.00;99.90;;;;;;5025399;28;20380;-60
2023/07/05 04:50:42;;;;;;;4.93;3.25;;;15.90;99.90;;;;;;5043178;28;20053;-61
2023/07/05 04:53:08;;;;;;;6.10;4.10;;;15.80;99.90;;;;;;5027069;28;20507;-60
2023/07/05 04:55:33;;;;;;;6.40;4.15;;;15.80;99.90;;;;;;5031062;28;20398;-60
2023/07/05 04:57:59;;;;;;;5.95;4.47;;;15.60;99.90;;;;;;5042703;28;20094;-61
2023/07/05 05:00:24;;;;;;;6.32;4.40;;;15.50;99.90;;;;;;5033715;28;20052;-61
2023/07/05 05:02:51;;;;;;;5.32;4.43;;;15.40;99.90;;;;;;5032490;28;20491;-60
2023/07/05 05:05:17;;;;;;;6.78;4.50;;;15.20;99.90;;;;;;5027905;28;20029;-61
2023/07/05 05:07:42;;;;;;;7.22;4.68;;;15.20;99.90;;;;;;5030730;28;20494;-61
2023/07/05 05:10:08;;;;;;;7.55;4.05;;;15.10;99.90;;;;;;5032257;28;20168;-61
2023/07/05 05:12:33;;;;;;;5.18;4.28;;;15.10;99.90;;;;;;5023730;28;20033;-61
2023/07/05 05:14:59;;;;;;;6.78;4.85;;;15.10;99.90;;;;;;5019510;28;20720;-61
2023/07/05 05:17:26;;;;;;;7.10;4.50;;;15.10;99.90;;;;;;5029076;28;20052;-60
2023/07/05 05:19:52;;;;;;;7.50;4.60;;;15.00;99.90;;;;;;5028730;28;20103;-60
2023/07/05 05:22:17;;;;;;;9.70;4.50;;;15.10;99.90;;;;;;5030554;28;20057;-60
2023/07/05 05:24:43;;;;;;;7.68;4.40;;;15.10;99.90;;;;;;5027850;28;20071;-61
2023/07/05 05:27:26;;;;;;;6.10;4.07;;;15.10;99.90;;;;;;5032085;28;20041;-61
2023/07/05 05:29:51;;;;;;;6.28;3.88;;;15.10;99.90;;;;;;5027699;28;20029;-61
2023/07/05 05:32:17;;;;;;;4.63;3.88;;;15.00;99.90;;;;;;5031968;28;20044;-61
2023/07/05 05:34:43;;;;;;;5.70;3.92;;;15.10;99.90;;;;;;5032192;28;20036;-61
2023/07/05 05:37:08;;;;;;;5.30;3.97;;;15.20;99.90;;;;;;5033271;28;20091;-61
2023/07/05 05:39:34;;;;;;;6.25;3.65;;;15.20;99.90;;;;;;5016452;28;20041;-61
2023/07/05 05:41:59;;;;;;;6.88;4.03;;;15.20;99.90;;;;;;5013796;28;20046;-61
2023/07/05 05:44:25;;;;;;;7.65;4.03;;;15.20;99.90;;;;;;5023571;28;20046;-61
2023/07/05 05:46:51;;;;;;;5.60;3.40;;;15.20;99.90;;;;;;5031971;28;20446;-61
2023/07/05 05:49:16;;;;;;;5.47;3.42;;;15.20;99.90;;;;;;5033219;28;20047;-61
2023/07/05 05:51:42;;;;;;;5.05;3.58;;;15.20;99.90;;;;;;5033172;28;20072;-61
2023/07/05 05:54:08;;;;;;;4.88;3.40;;;15.20;99.90;;;;;;5028951;28;20144;-61
2023/07/05 05:56:33;;;;;;;6.38;3.47;;;15.20;99.90;;;;;;5031306;28;20099;-61
2023/07/05 05:58:59;;;;;;;4.43;2.92;;;15.20;99.90;;;;;;5033297;28;20072;-61
2023/07/05 06:01:24;;;;;;;6.45;3.53;;;15.20;99.90;;;;;;5033011;28;20112;-61
2023/07/05 06:03:50;;;;;;;6.82;4.10;;;15.20;99.90;;;;;;5023795;28;20562;-61
2023/07/05 06:06:15;;;;;;;8.13;3.80;;;15.30;99.90;;;;;;5028147;28;20044;-61
2023/07/05 06:08:41;;;;;;;5.45;3.80;;;15.20;99.90;;;;;;5028807;28;20033;-61
2023/07/05 06:11:07;;;;;;;5.90;3.67;;;15.20;99.90;;;;;;5028195;28;20100;-61
2023/07/05 06:13:33;;;;;;;5.63;3.55;;;15.30;99.90;;;;;;5023080;28;20037;-61
2023/07/05 06:16:03;;;;;;;7.35;3.90;;;15.20;99.90;;;;;;5022087;28;20495;-61
2023/07/05 06:18:29;;;;;;;7.53;4.00;;;15.30;99.90;;;;;;5025960;28;20128;-61
2023/07/05 06:20:56;;;;;;;7.25;4.03;;;15.30;99.90;;;;;;5028777;28;20132;-61
2023/07/05 06:23:22;;;;;;;5.25;3.50;;;15.30;99.90;;;;;;5026244;28;20029;-62
2023/07/05 06:25:49;;;;;;;8.52;4.10;;;15.40;99.90;;;;;;5031813;28;20029;-61
2023/07/05 06:28:16;;;;;;;8.07;3.85;;;15.60;99.90;;;;;;5021608;28;20037;-61
2023/07/05 06:30:42;;;;;;;7.57;4.00;;;15.80;99.90;;;;;;5020770;28;20041;-61
2023/07/05 06:33:08;;;;;;;7.40;3.65;;;15.80;99.90;;;;;;5018822;28;20044;-61
2023/07/05 06:35:34;;;;;;;5.13;3.75;;;15.90;99.90;;;;;;5027786;28;20626;-61
2023/07/05 06:37:59;;;;;;;6.95;3.67;;;16.00;99.90;;;;;;5020684;28;20120;-61
2023/07/05 06:40:25;;;;;;;6.95;3.72;;;16.10;99.90;;;;;;5027399;28;20045;-61
2023/07/05 06:42:51;;;;;;;7.40;4.57;;;16.20;99.90;;;;;;5029870;28;20045;-61
2023/07/05 06:45:17;;;;;;;7.45;3.80;;;16.10;99.90;;;;;;5028964;28;20041;-61
2023/07/05 06:47:42;;;;;;;5.63;3.67;;;16.10;99.90;;;;;;5026310;28;20032;-61
2023/07/05 06:50:09;;;;;;;5.57;3.40;;;16.00;99.90;;;;;;5024605;28;20494;-61
2023/07/05 06:52:34;;;;;;;5.85;3.75;;;15.90;99.90;;;;;;5028280;28;20033;-61
2023/07/05 06:55:00;;;;;;;6.82;3.10;;;15.90;99.90;;;;;;5023395;28;20416;-61
2023/07/05 06:57:26;;;;;;;7.30;3.13;;;15.80;99.90;;;;;;5028886;28;20043;-61
2023/07/05 06:59:51;;;;;;;4.97;3.50;;;15.80;99.90;;;;;;5028768;28;20033;-61
2023/07/05 07:02:17;;;;;;;5.80;3.47;;;15.80;99.90;;;;;;5030667;28;20037;-61
2023/07/05 07:04:43;;;;;;;7.68;3.75;;;15.70;99.90;;;;;;5030163;28;20045;-61
2023/07/05 07:07:08;;;;;;;8.38;3.40;;;15.60;99.90;;;;;;5025737;28;20033;-61
2023/07/05 07:09:34;;;;;;;8.20;3.47;;;15.60;99.90;;;;;;5030978;28;20037;-61
2023/07/05 07:12:00;;;;;;;5.15;3.35;;;15.50;99.90;;;;;;5031768;28;20029;-61
2023/07/05 07:14:26;;;;;;;5.50;3.60;;;15.50;99.90;;;;;;5024646;28;20573;-62
2023/07/05 07:16:52;;;;;;;6.13;3.63;;;15.40;99.90;;;;;;5028826;28;20083;-61
2023/07/05 07:19:17;;;;;;;7.00;3.33;;;15.40;99.90;;;;;;5028717;28;20091;-61
2023/07/05 07:21:49;;;;;;;6.28;3.58;;;15.30;99.90;;;;;;5028579;28;20044;-61
2023/07/05 07:24:15;;;;;;;9.23;3.70;;;15.30;99.90;;;;;;5028332;28;20041;-61
2023/07/05 07:26:42;;;;;;;5.38;3.45;;;15.20;99.90;;;;;;5025569;28;20510;-61
2023/07/05 07:29:08;;;;;;;6.57;3.80;;;15.20;99.90;;;;;;5029825;28;20034;-61
2023/07/05 07:31:34;;;;;;;9.25;3.40;;;15.20;99.90;;;;;;5031192;28;20048;-60
2023/07/05 07:34:01;;;;;;;4.60;3.40;;;15.20;99.90;;;;;;5030207;28;20038;-60
2023/07/05 07:36:29;;;;;;;4.43;2.78;;;15.20;99.90;;;;;;5029292;28;20112;-61
2023/07/05 07:38:56;;;;;;;5.97;3.22;;;15.20;99.90;;;;;;5027402;28;20037;-60
2023/07/05 07:41:23;;;;;;;5.45;3.08;;;15.20;99.90;;;;;;5035332;28;20040;-60
2023/07/05 07:43:54;;;;;;;7.13;3.80;;;15.10;99.90;;;;;;5033675;28;20069;-61
2023/07/05 07:46:23;;;;;;;6.18;3.17;;;15.10;99.90;;;;;;5028004;28;20033;-61
2023/07/05 07:48:50;;;;;;;5.80;3.40;;;14.90;99.90;;;;;;5028783;28;20109;-62
2023/07/05 07:51:17;;;;;;;4.70;2.97;;;14.70;99.90;;;;;;5027862;28;20044;-62
2023/07/05 07:53:43;;;;;;;5.18;2.15;;;14.60;99.90;;;;;;5029944;28;20038;-62
2023/07/05 07:56:13;;;;;;;2.40;1.02;;;14.40;99.90;;;;;;5027733;28;20041;-61
2023/07/05 07:58:40;;;;;;;1.95;0.98;;;14.30;99.90;;;;;;5027555;28;20047;-62
2023/07/05 08:01:21;;;;;;;2.13;1.23;;;14.30;99.90;;;;;;5037859;28;20040;-61
2023/07/05 08:03:48;;;;;;;2.05;1.00;;;14.10;99.90;;;;;;5034808;28;20088;-60
2023/07/05 08:06:14;;;;;;;3.80;1.25;;;14.10;99.90;;;;;;5020922;28;20045;-61
2023/07/05 08:08:40;;;;;;;3.90;1.00;;;14.00;99.90;;;;;;5028291;28;20029;-62
2023/07/05 08:11:08;;;;;;;3.88;1.30;;;14.00;99.90;;;;;;5031498;28;20041;-62
2023/07/05 08:13:34;;;;;;;3.00;1.13;;;14.00;99.90;;;;;;5037157;28;20052;-62
2023/07/05 08:16:01;;;;;;;1.88;1.00;;;13.90;99.90;;;;;;5027086;28;20045;-62
2023/07/05 08:18:27;;;;;;;1.98;0.88;;;13.90;99.90;;;;;;5026980;28;20034;-62
2023/07/05 08:20:53;;;;;;;2.60;0.90;;;13.80;99.90;;;;;;5030512;28;20041;-61
2023/07/05 08:23:19;;;;;;;1.50;0.68;;;13.90;99.90;;;;;;5038636;28;20036;-61
2023/07/05 08:25:45;;;;;;;3.45;0.82;;;13.80;99.90;;;;;;5026574;28;20068;-61
2023/07/05 08:28:13;;;;;;;2.78;0.85;;;13.80;99.90;;;;;;5031063;28;20037;-61
2023/07/05 08:30:39;;;;;;;1.75;1.00;;;13.80;99.90;;;;;;5029641;28;20047;-61
2023/07/05 08:33:06;;;;;;;3.80;1.20;;;13.70;99.90;;;;;;5041640;28;20189;-61
2023/07/05 08:35:32;;;;;;;1.38;0.90;;;13.70;99.90;;;;;;5026861;28;20087;-60
2023/07/05 08:37:58;;;;;;;3.70;0.90;;;13.70;99.90;;;;;;5027527;28;20445;-60
2023/07/05 08:40:31;;;;;;;2.03;0.93;;;13.70;99.90;;;;;;5033649;28;20034;-60
2023/07/05 08:43:04;;;;;;;2.95;1.10;;;13.70;99.90;;;;;;5032622;28;20042;-60
2023/07/05 08:45:38;;;;;;;2.10;0.82;;;13.70;99.90;;;;;;5029718;28;20037;-60
2023/07/05 08:48:06;;;;;;;1.80;1.00;;;13.70;99.90;;;;;;5033103;28;20034;-60
2023/07/05 08:50:37;;;;;;;3.78;1.05;;;13.60;99.90;;;;;;5039140;28;20113;-60
2023/07/05 08:53:19;;;;;;;2.70;1.00;;;13.60;99.90;;;;;;5042867;28;20061;-60
2023/07/05 08:56:06;;;;;;;2.97;0.95;;;13.60;99.90;;;;;;5030028;28;20045;-60
2023/07/05 08:58:56;;;;;;;2.30;0.98;;;13.60;99.90;;;;;;5029363;28;20056;-60
2023/07/05 09:01:37;;;;;;;2.40;1.13;;;13.60;99.90;;;;;;5028584;28;20037;-60
2023/07/05 09:04:02;;;;;;;3.08;1.27;;;13.60;99.90;;;;;;5034867;28;20057;-59
2023/07/05 09:06:43;;;;;;;1.30;0.90;;;13.50;99.90;;;;;;5024261;28;20107;-61
2023/07/05 09:09:24;;;;;;;3.35;1.10;;;13.50;99.90;;;;;;5026319;28;20117;-60
2023/07/05 09:12:17;;;;;;;3.65;1.40;;;13.50;99.90;;;;;;5028993;28;20025;-61
2023/07/05 09:15:01;;;;;;;4.10;1.40;;;13.40;99.90;;;;;;5037423;28;20044;-61
2023/07/05 09:17:52;;;;;;;2.65;1.50;;;13.40;99.90;;;;;;5033893;28;20049;-61
2023/07/05 09:20:27;;;;;;;3.03;1.48;;;13.30;99.90;;;;;;5027448;28;20693;-62
2023/07/05 09:22:54;;;;;;;3.38;1.30;;;13.30;99.90;;;;;;5024843;28;20810;-62
2023/07/05 09:25:22;;;;;;;4.00;1.40;;;13.30;99.90;;;;;;5024974;28;20545;-61
2023/07/05 09:27:54;;;;;;;4.97;1.58;;;13.30;99.90;;;;;;5011421;28;20057;-62
2023/07/05 09:30:26;;;;;;;3.65;1.50;;;13.20;99.90;;;;;;5027183;28;20112;-61
2023/07/05 09:33:10;;;;;;;3.85;1.52;;;13.20;99.90;;;;;;5029969;28;20037;-61
2023/07/05 09:35:37;;;;;;;2.90;1.33;;;13.20;99.90;;;;;;5028688;28;20124;-61
2023/07/05 09:38:33;;;;;;;4.35;1.60;;;13.10;99.90;;;;;;5026643;28;20037;-62
2023/07/05 09:41:09;;;;;;;5.53;1.60;;;13.10;99.90;;;;;;5029942;28;20075;-61
2023/07/05 09:43:36;;;;;;;5.43;1.65;;;13.20;99.90;;;;;;5031820;28;20510;-62
2023/07/05 09:46:14;;;;;;;4.75;1.90;;;13.20;99.90;;;;;;5045418;28;20045;-61
2023/07/05 09:48:43;;;;;;;5.90;1.83;;;13.20;99.90;;;;;;5030626;28;20033;-61
2023/07/05 09:51:11;;;;;;;6.18;1.80;;;13.20;99.90;;;;;;5029013;28;20094;-61
2023/07/05 09:53:51;;;;;;;2.45;1.33;;;13.20;99.90;;;;;;5027191;28;20053;-60
2023/07/05 09:56:29;;;;;;;6.95;1.70;;;13.30;99.90;;;;;;5026506;28;20037;-61
2023/07/05 09:59:12;;;;;;;10.18;2.08;;;13.30;99.90;;;;;;5024950;28;20472;-60
2023/07/05 10:01:41;;;;;;;4.43;2.33;;;13.30;99.90;;;;;;5025280;28;20029;-60
2023/07/05 10:04:08;;;;;;;6.63;2.20;;;13.40;99.90;;;;;;5030724;28;20137;-60
2023/07/05 10:06:38;;;;;;;7.93;2.15;;;13.30;99.90;;;;;;5026638;28;20025;-61
2023/07/05 10:09:25;;;;;;;6.53;1.80;;;13.30;99.90;;;;;;5026721;28;20041;-61
2023/07/05 10:11:53;;;;;;;6.57;2.03;;;13.40;99.90;;;;;;5028162;28;20061;-61
2023/07/05 10:14:27;;;;;;;8.45;2.10;;;13.40;99.90;;;;;;5028960;28;20051;-61
2023/07/05 10:17:11;;;;;;;5.90;1.83;;;13.30;99.90;;;;;;5031157;28;20510;-61
2023/07/05 10:19:51;;;;;;;5.88;2.22;;;13.30;99.90;;;;;;5028434;28;20037;-61
2023/07/05 10:22:30;;;;;;;8.07;2.30;;;13.30;99.90;;;;;;5038923;28;20112;-61
2023/07/05 10:25:00;;;;;;;9.70;2.10;;;13.30;99.90;;;;;;5039490;28;20037;-61
2023/07/05 10:27:35;;;;;;;8.55;1.90;;;13.30;99.90;;;;;;5030430;28;20151;-61
2023/07/05 10:30:12;;;;;;;7.82;2.20;;;13.30;99.90;;;;;;5028248;28;20096;-61
2023/07/05 10:32:42;;;;;;;9.52;2.50;;;13.30;99.90;;;;;;5027653;28;20048;-61
2023/07/05 10:35:31;;;;;;;6.50;2.15;;;13.30;99.90;;;;;;5023806;28;20041;-61
2023/07/05 10:37:57;;;;;;;8.13;2.05;;;13.40;99.90;;;;;;5030501;28;20117;-61
2023/07/05 10:40:23;;;;;;;9.73;2.00;;;13.40;99.90;;;;;;5033973;28;20029;-61
2023/07/05 10:42:57;;;;;;;6.75;1.30;;;13.40;99.90;;;;;;5037364;28;20082;-61
2023/07/05 10:45:28;;;;;;;3.58;1.70;;;13.50;99.90;;;;;;5037868;28;20056;-61
2023/07/05 10:47:54;;;;;;;5.07;1.50;;;13.40;99.90;;;;;;5042519;22;20046;-66
2023/07/05 10:50:27;;;;;;;5.05;1.30;;;13.50;99.90;;;;;;5028419;28;20037;-66
2023/07/05 10:53:03;;;;;;;7.05;2.00;;;13.40;99.90;;;;;;5023400;28;20496;-65
2023/07/05 10:55:56;;;;;;;4.13;1.67;;;13.40;99.90;;;;;;5025775;28;20052;-66
2023/07/05 10:58:28;;;;;;;6.97;2.13;;;13.40;99.90;;;;;;5028399;28;20053;-68
2023/07/05 11:01:13;;;;;;;5.45;1.73;;;13.30;99.90;;;;;;5034678;28;20131;-68
2023/07/05 11:04:00;;;;;;;13.07;2.60;;;13.20;99.90;;;;;;5033799;28;20033;-67
2023/07/05 11:06:27;;;;;;;7.70;2.72;;;13.20;99.90;;;;;;5024574;28;20044;-67
2023/07/05 11:08:53;;;;;;;7.95;2.63;;;13.20;99.90;;;;;;5027860;28;20051;-67
2023/07/05 11:11:24;;;;;;;11.18;2.53;;;13.20;99.90;;;;;;5031928;28;20037;-67
2023/07/05 11:13:51;;;;;;;7.50;2.55;;;13.10;99.90;;;;;;5033196;28;20482;-67
2023/07/05 11:16:29;;;;;;;6.93;2.45;;;13.10;99.90;;;;;;5030611;28;20060;-67
2023/07/05 11:19:01;;;;;;;10.35;2.15;;;13.10;99.90;;;;;;5005606;28;20034;-67
2023/07/05 11:21:44;;;;;;;7.50;2.15;;;13.10;99.90;;;;;;5026311;28;20120;-68
2023/07/05 11:24:31;;;;;;;8.23;2.38;;;13.10;99.90;;;;;;5029031;28;20514;-67
2023/07/05 11:26:58;;;;;;;8.25;2.00;;;13.10;99.90;;;;;;5030203;28;20043;-68
2023/07/05 11:29:32;;;;;;;5.53;1.98;;;13.10;99.90;;;;;;5028518;28;20087;-68
2023/07/05 11:32:05;;;;;;;10.63;2.33;;;13.10;99.90;;;;;;5031886;28;20403;-67
2023/07/05 11:34:43;;;;;;;8.80;2.25;;;13.10;99.90;;;;;;5022679;28;20052;-68
2023/07/05 11:37:09;;;;;;;6.15;2.13;;;13.20;99.90;;;;;;5038261;28;20045;-67
2023/07/05 11:39:48;;;;;;;9.15;2.92;;;13.20;99.90;;;;;;5035167;28;20086;-67
2023/07/05 11:42:14;;;;;;;6.18;1.83;;;13.20;99.90;;;;;;5022850;28;20625;-67
2023/07/05 11:44:40;;;;;;;7.80;2.30;;;13.20;99.90;;;;;;5034523;28;20037;-66
2023/07/05 11:47:32;;;;;;;10.00;2.00;;;13.20;99.90;;;;;;5030190;28;20233;-67
2023/07/05 11:50:09;;;;;;;6.80;1.70;;;13.20;99.90;;;;;;5026289;28;20048;-66
2023/07/05 11:52:38;;;;;;;4.65;1.65;;;13.20;99.90;;;;;;5031286;28;20117;-67
2023/07/05 11:55:26;;;;;;;6.35;2.00;;;13.20;99.90;;;;;;5029749;28;20037;-67
2023/07/05 11:58:08;;;;;;;6.35;2.03;;;13.20;99.90;;;;;;5018141;28;20046;-67
2023/07/05 12:00:50;;;;;;;6.05;2.35;;;13.20;99.90;;;;;;5033551;28;20040;-68
2023/07/05 12:03:25;;;;;;;6.32;2.13;;;13.10;99.90;;;;;;5020863;28;20034;-67
2023/07/05 12:06:06;;;;;;;4.65;1.85;;;13.20;99.90;;;;;;5030722;28;20120;-67
2023/07/05 12:08:36;;;;;;;;;;;13.20;99.90;;;;;;5035219;28;20088;-68
2023/07/05 12:11:02;;;;;;;5.18;1.83;;;13.20;99.90;;;;;;5031229;28;20298;-67
2023/07/05 12:13:33;;;;;;;3.90;1.35;;;13.30;99.90;;;;;;5025921;28;20042;-67
2023/07/05 12:16:00;;;;;;;5.70;1.65;;;13.40;99.90;;;;;;5027573;28;20040;-66
2023/07/05 12:18:28;;;;;;;7.47;2.17;;;13.40;99.90;;;;;;5030406;28;20072;-66
2023/07/05 12:20:54;;;;;;;6.20;1.95;;;13.40;99.90;;;;;;5038118;28;20041;-66
2023/07/05 12:23:23;;;;;;;9.82;2.00;;;13.40;99.90;;;;;;5039904;28;20495;-66
2023/07/05 12:25:56;;;;;;;10.18;1.98;;;13.50;99.90;;;;;;5027642;28;20114;-65
2023/07/05 12:28:27;;;;;;;6.47;1.83;;;13.50;99.90;;;;;;5026729;28;20034;-65
2023/07/05 12:31:05;;;;;;;8.43;2.35;;;13.50;99.90;;;;;;5043056;28;20037;-65
2023/07/05 12:33:34;;;;;;;4.30;2.05;;;13.60;99.90;;;;;;5034733;28;20087;-65
2023/07/05 12:36:11;;;;;;;9.35;2.30;;;13.80;99.90;;;;;;5034911;28;20051;-65
2023/07/05 12:38:39;;;;;;;7.85;2.30;;;13.90;99.90;;;;;;5030248;28;20044;-66
2023/07/05 12:41:25;;;;;;;10.43;2.75;;;14.10;99.90;;;;;;5035576;28;20406;-64
2023/07/05 12:43:59;;;;;;;11.75;2.70;;;14.30;99.90;;;;;;5038017;28;20498;-65
2023/07/05 12:46:27;;;;;;;10.98;2.38;;;14.30;99.90;;;;;;5001765;28;20095;-65
2023/07/05 12:48:53;;;;;;;8.02;2.45;;;14.30;99.90;;;;;;5034227;28;20030;-65
2023/07/05 12:51:28;;;;;;;8.55;2.42;;;14.30;99.90;;;;;;5031206;28;20038;-65
2023/07/05 12:53:59;;;;;;;9.93;3.05;;;14.30;99.90;;;;;;5034957;28;20048;-65
2023/07/05 12:56:36;;;;;;;11.05;2.53;;;14.20;99.90;;;;;;5031766;28;20530;-65
2023/07/05 12:59:06;;;;;;;11.02;3.28;;;14.20;99.90;;;;;;5032492;28;20038;-65